sensor_id;sensor_type;location;lat;lon;timestamp;temperature;humidity
11423;DHT22;5768;51.476;7.210;2023-07-08T00:02:58;23.00;9.30
11423;DHT22;5768;51.476;7.210;2023-07-08T00:08:00;23.10;9.90
11423;DHT22;5768;51.476;7.210;2023-07-08T00:13:03;23.00;9.90
11423;DHT22;5768;51.476;7.210;2023-07-08T00:18:10;23.10;9.80
11423;DHT22;5768;51.476;7.210;2023-07-08T00:23:15;23.10;9.70
11423;DHT22;5768;51.476;7.210;2023-07-08T00:28:23;23.00;9.50
11423;DHT22;5768;51.476;7.210;2023-07-08T00:33:26;23.10;9.40
11423;DHT22;5768;51.476;7.210;2023-07-08T00:38:28;23.10;9.80
11423;DHT22;5768;51.476;7.210;2023-07-08T00:43:36;22.90;9.90
11423;DHT22;5768;51.476;7.210;2023-07-08T00:48:41;23.00;9.70
11423;DHT22;5768;51.476;7.210;2023-07-08T00:53:44;22.90;10.10
11423;DHT22;5768;51.476;7.210;2023-07-08T00:58:50;22.90;9.90
11423;DHT22;5768;51.476;7.210;2023-07-08T01:04:01;22.90;9.70
11423;DHT22;5768;51.476;7.210;2023-07-08T01:09:09;22.90;10.00
11423;DHT22;5768;51.476;7.210;2023-07-08T01:14:18;22.80;10.00
11423;DHT22;5768;51.476;7.210;2023-07-08T01:19:23;22.80;10.10
11423;DHT22;5768;51.476;7.210;2023-07-08T01:24:36;22.70;9.60
11423;DHT22;5768;51.476;7.210;2023-07-08T01:29:41;22.60;9.60
11423;DHT22;5768;51.476;7.210;2023-07-08T01:34:45;22.60;9.30
11423;DHT22;5768;51.476;7.210;2023-07-08T01:40:16;22.50;9.40
11423;DHT22;5768;51.476;7.210;2023-07-08T01:45:28;22.30;9.40
11423;DHT22;5768;51.476;7.210;2023-07-08T01:50:36;22.20;9.50
11423;DHT22;5768;51.476;7.210;2023-07-08T01:55:42;22.10;10.00
11423;DHT22;5768;51.476;7.210;2023-07-08T02:00:44;22.00;9.80
11423;DHT22;5768;51.476;7.210;2023-07-08T02:05:49;21.90;10.20
11423;DHT22;5768;51.476;7.210;2023-07-08T02:10:56;21.90;10.70
11423;DHT22;5768;51.476;7.210;2023-07-08T02:15:59;21.90;10.60
11423;DHT22;5768;51.476;7.210;2023-07-08T02:21:02;21.60;10.60
11423;DHT22;5768;51.476;7.210;2023-07-08T02:26:05;21.60;10.80
11423;DHT22;5768;51.476;7.210;2023-07-08T02:31:07;21.30;10.20
11423;DHT22;5768;51.476;7.210;2023-07-08T02:36:10;21.40;10.90
11423;DHT22;5768;51.476;7.210;2023-07-08T02:41:13;21.30;11.30
11423;DHT22;5768;51.476;7.210;2023-07-08T02:46:16;21.20;11.60
11423;DHT22;5768;51.476;7.210;2023-07-08T02:51:18;21.30;11.00
11423;DHT22;5768;51.476;7.210;2023-07-08T02:56:21;21.20;10.70
11423;DHT22;5768;51.476;7.210;2023-07-08T03:01:24;21.40;10.30
11423;DHT22;5768;51.476;7.210;2023-07-08T03:06:27;21.40;10.70
11423;DHT22;5768;51.476;7.210;2023-07-08T03:11:31;21.30;10.70
11423;DHT22;5768;51.476;7.210;2023-07-08T03:16:33;21.30;10.60
11423;DHT22;5768;51.476;7.210;2023-07-08T03:21:35;21.10;10.50
11423;DHT22;5768;51.476;7.210;2023-07-08T03:26:39;21.30;10.40
11423;DHT22;5768;51.476;7.210;2023-07-08T03:31:59;21.30;10.30
11423;DHT22;5768;51.476;7.210;2023-07-08T03:37:02;21.30;10.50
11423;DHT22;5768;51.476;7.210;2023-07-08T03:42:07;21.30;10.60
11423;DHT22;5768;51.476;7.210;2023-07-08T03:47:09;21.40;10.40
11423;DHT22;5768;51.476;7.210;2023-07-08T03:52:15;21.30;10.40
11423;DHT22;5768;51.476;7.210;2023-07-08T03:57:19;21.30;10.50
11423;DHT22;5768;51.476;7.210;2023-07-08T04:02:21;21.20;10.80
11423;DHT22;5768;51.476;7.210;2023-07-08T04:07:23;21.20;10.30
11423;DHT22;5768;51.476;7.210;2023-07-08T04:12:27;21.00;10.30
11423;DHT22;5768;51.476;7.210;2023-07-08T04:17:29;21.00;10.50
11423;DHT22;5768;51.476;7.210;2023-07-08T04:22:32;20.90;10.50
11423;DHT22;5768;51.476;7.210;2023-07-08T04:27:36;20.90;10.60
11423;DHT22;5768;51.476;7.210;2023-07-08T04:32:39;21.10;10.60
11423;DHT22;5768;51.476;7.210;2023-07-08T04:37:41;21.20;10.60
11423;DHT22;5768;51.476;7.210;2023-07-08T04:42:45;21.40;10.50
11423;DHT22;5768;51.476;7.210;2023-07-08T04:47:48;21.70;10.40
11423;DHT22;5768;51.476;7.210;2023-07-08T04:52:52;21.60;10.50
11423;DHT22;5768;51.476;7.210;2023-07-08T04:57:56;21.80;10.20
11423;DHT22;5768;51.476;7.210;2023-07-08T05:02:58;21.90;10.20
11423;DHT22;5768;51.476;7.210;2023-07-08T05:08:00;21.80;10.30
11423;DHT22;5768;51.476;7.210;2023-07-08T05:13:05;21.80;10.50
11423;DHT22;5768;51.476;7.210;2023-07-08T05:18:07;21.90;10.20
11423;DHT22;5768;51.476;7.210;2023-07-08T05:23:09;21.90;10.80
11423;DHT22;5768;51.476;7.210;2023-07-08T05:28:13;21.90;10.80
11423;DHT22;5768;51.476;7.210;2023-07-08T05:33:15;22.00;10.60
11423;DHT22;5768;51.476;7.210;2023-07-08T05:38:18;21.80;10.80
11423;DHT22;5768;51.476;7.210;2023-07-08T05:43:22;22.00;10.80
11423;DHT22;5768;51.476;7.210;2023-07-08T05:48:24;22.20;10.90
11423;DHT22;5768;51.476;7.210;2023-07-08T05:53:27;22.30;10.60
11423;DHT22;5768;51.476;7.210;2023-07-08T05:58:30;22.40;10.50
11423;DHT22;5768;51.476;7.210;2023-07-08T06:03:32;22.40;10.10
11423;DHT22;5768;51.476;7.210;2023-07-08T06:08:35;22.40;10.20
11423;DHT22;5768;51.476;7.210;2023-07-08T06:13:38;22.70;10.80
11423;DHT22;5768;51.476;7.210;2023-07-08T06:18:40;22.80;10.80
11423;DHT22;5768;51.476;7.210;2023-07-08T06:23:43;22.90;11.00
11423;DHT22;5768;51.476;7.210;2023-07-08T06:28:46;23.00;11.00
11423;DHT22;5768;51.476;7.210;2023-07-08T06:33:48;23.10;10.90
11423;DHT22;5768;51.476;7.210;2023-07-08T06:38:51;23.30;11.10
11423;DHT22;5768;51.476;7.210;2023-07-08T06:43:54;23.60;10.70
11423;DHT22;5768;51.476;7.210;2023-07-08T06:48:56;23.70;10.80
11423;DHT22;5768;51.476;7.210;2023-07-08T06:54:14;23.90;11.00
11423;DHT22;5768;51.476;7.210;2023-07-08T06:59:17;24.10;10.50
11423;DHT22;5768;51.476;7.210;2023-07-08T07:04:20;24.40;10.50
11423;DHT22;5768;51.476;7.210;2023-07-08T07:09:22;24.60;10.70
11423;DHT22;5768;51.476;7.210;2023-07-08T07:14:25;24.50;10.70
11423;DHT22;5768;51.476;7.210;2023-07-08T07:19:28;24.90;10.50
11423;DHT22;5768;51.476;7.210;2023-07-08T07:24:30;25.10;10.50
11423;DHT22;5768;51.476;7.210;2023-07-08T07:29:41;25.30;10.40
11423;DHT22;5768;51.476;7.210;2023-07-08T07:34:46;25.50;10.10
11423;DHT22;5768;51.476;7.210;2023-07-08T07:39:49;25.80;10.20
11423;DHT22;5768;51.476;7.210;2023-07-08T07:44:53;25.90;10.10
11423;DHT22;5768;51.476;7.210;2023-07-08T07:49:55;26.10;9.70
11423;DHT22;5768;51.476;7.210;2023-07-08T07:54:57;26.20;9.30
11423;DHT22;5768;51.476;7.210;2023-07-08T08:00:01;26.50;9.20
11423;DHT22;5768;51.476;7.210;2023-07-08T08:05:03;26.70;9.00
11423;DHT22;5768;51.476;7.210;2023-07-08T08:10:06;26.80;9.20
11423;DHT22;5768;51.476;7.210;2023-07-08T08:15:11;27.00;9.10
11423;DHT22;5768;51.476;7.210;2023-07-08T08:20:13;27.20;9.40
11423;DHT22;5768;51.476;7.210;2023-07-08T08:25:16;27.30;10.00
11423;DHT22;5768;51.476;7.210;2023-07-08T08:30:21;27.50;10.00
11423;DHT22;5768;51.476;7.210;2023-07-08T08:35:23;27.50;9.60
11423;DHT22;5768;51.476;7.210;2023-07-08T08:40:25;27.50;10.30
11423;DHT22;5768;51.476;7.210;2023-07-08T08:45:36;27.70;9.70
11423;DHT22;5768;51.476;7.210;2023-07-08T08:50:49;28.00;9.80
11423;DHT22;5768;51.476;7.210;2023-07-08T08:55:57;28.20;9.70
11423;DHT22;5768;51.476;7.210;2023-07-08T09:01:11;28.60;10.00
11423;DHT22;5768;51.476;7.210;2023-07-08T09:06:17;29.10;9.80
11423;DHT22;5768;51.476;7.210;2023-07-08T09:11:38;29.20;9.70
11423;DHT22;5768;51.476;7.210;2023-07-08T09:16:52;29.10;9.70
11423;DHT22;5768;51.476;7.210;2023-07-08T09:22:02;29.30;9.50
11423;DHT22;5768;51.476;7.210;2023-07-08T09:27:08;29.50;9.40
11423;DHT22;5768;51.476;7.210;2023-07-08T09:32:20;30.20;9.30
11423;DHT22;5768;51.476;7.210;2023-07-08T09:37:27;30.40;9.10
11423;DHT22;5768;51.476;7.210;2023-07-08T09:42:32;30.70;9.00
11423;DHT22;5768;51.476;7.210;2023-07-08T09:47:38;30.70;8.80
11423;DHT22;5768;51.476;7.210;2023-07-08T09:52:41;30.50;8.80
11423;DHT22;5768;51.476;7.210;2023-07-08T09:57:44;30.50;8.70
11423;DHT22;5768;51.476;7.210;2023-07-08T10:02:53;30.50;8.80
11423;DHT22;5768;51.476;7.210;2023-07-08T10:07:58;30.80;8.20
11423;DHT22;5768;51.476;7.210;2023-07-08T10:13:04;30.70;8.20
11423;DHT22;5768;51.476;7.210;2023-07-08T10:18:24;30.70;8.20
11423;DHT22;5768;51.476;7.210;2023-07-08T10:23:43;30.20;8.20
11423;DHT22;5768;51.476;7.210;2023-07-08T10:29:04;30.80;8.00
11423;DHT22;5768;51.476;7.210;2023-07-08T10:34:36;31.00;8.00
11423;DHT22;5768;51.476;7.210;2023-07-08T10:40:02;31.10;8.10
11423;DHT22;5768;51.476;7.210;2023-07-08T10:45:27;31.20;8.20
11423;DHT22;5768;51.476;7.210;2023-07-08T10:50:52;31.30;8.10
11423;DHT22;5768;51.476;7.210;2023-07-08T10:56:10;31.30;8.00
11423;DHT22;5768;51.476;7.210;2023-07-08T11:01:26;31.50;8.10
11423;DHT22;5768;51.476;7.210;2023-07-08T11:06:45;31.60;8.00
11423;DHT22;5768;51.476;7.210;2023-07-08T11:11:56;31.70;8.10
11423;DHT22;5768;51.476;7.210;2023-07-08T11:17:09;31.80;7.70
11423;DHT22;5768;51.476;7.210;2023-07-08T11:22:21;31.80;7.80
11423;DHT22;5768;51.476;7.210;2023-07-08T11:27:26;31.90;7.90
11423;DHT22;5768;51.476;7.210;2023-07-08T11:32:33;32.00;8.00
11423;DHT22;5768;51.476;7.210;2023-07-08T11:37:37;31.90;7.80
11423;DHT22;5768;51.476;7.210;2023-07-08T11:42:42;31.90;7.80
11423;DHT22;5768;51.476;7.210;2023-07-08T11:47:48;32.10;7.60
11423;DHT22;5768;51.476;7.210;2023-07-08T11:52:54;32.80;7.70
11423;DHT22;5768;51.476;7.210;2023-07-08T11:58:01;33.60;7.80
11423;DHT22;5768;51.476;7.210;2023-07-08T12:03:20;32.50;8.00
11423;DHT22;5768;51.476;7.210;2023-07-08T12:08:34;32.60;8.20
11423;DHT22;5768;51.476;7.210;2023-07-08T12:13:40;32.70;7.70
11423;DHT22;5768;51.476;7.210;2023-07-08T12:18:43;32.70;7.90
11423;DHT22;5768;51.476;7.210;2023-07-08T12:23:48;33.10;7.60
11423;DHT22;5768;51.476;7.210;2023-07-08T12:28:50;33.30;7.50
11423;DHT22;5768;51.476;7.210;2023-07-08T12:33:53;33.30;7.90
11423;DHT22;5768;51.476;7.210;2023-07-08T12:38:59;33.70;7.80
11423;DHT22;5768;51.476;7.210;2023-07-08T12:44:17;34.20;7.40
11423;DHT22;5768;51.476;7.210;2023-07-08T12:49:21;35.50;7.90
11423;DHT22;5768;51.476;7.210;2023-07-08T12:54:29;37.30;7.10
11423;DHT22;5768;51.476;7.210;2023-07-08T12:59:32;39.60;6.80
11423;DHT22;5768;51.476;7.210;2023-07-08T13:04:40;41.00;6.40
11423;DHT22;5768;51.476;7.210;2023-07-08T13:09:45;43.20;6.30
11423;DHT22;5768;51.476;7.210;2023-07-08T13:14:49;45.20;5.80
11423;DHT22;5768;51.476;7.210;2023-07-08T13:19:52;46.30;5.50
11423;DHT22;5768;51.476;7.210;2023-07-08T13:25:03;47.50;5.30
11423;DHT22;5768;51.476;7.210;2023-07-08T13:30:18;48.90;5.20
11423;DHT22;5768;51.476;7.210;2023-07-08T13:35:28;50.00;5.10
11423;DHT22;5768;51.476;7.210;2023-07-08T13:40:42;49.40;5.10
11423;DHT22;5768;51.476;7.210;2023-07-08T13:45:47;50.70;6.40
11423;DHT22;5768;51.476;7.210;2023-07-08T13:50:53;52.20;7.30
11423;DHT22;5768;51.476;7.210;2023-07-08T13:56:10;53.60;3.10
11423;DHT22;5768;51.476;7.210;2023-07-08T14:06:21;54.90;5.00
11423;DHT22;5768;51.476;7.210;2023-07-08T14:11:25;55.70;3.20
11423;DHT22;5768;51.476;7.210;2023-07-08T14:16:29;56.90;2.80
11423;DHT22;5768;51.476;7.210;2023-07-08T14:21:35;57.90;3.20
11423;DHT22;5768;51.476;7.210;2023-07-08T14:26:42;57.00;2.90
11423;DHT22;5768;51.476;7.210;2023-07-08T14:31:45;57.90;4.50
11423;DHT22;5768;51.476;7.210;2023-07-08T14:36:47;57.80;4.10
11423;DHT22;5768;51.476;7.210;2023-07-08T14:41:50;54.10;4.40
11423;DHT22;5768;51.476;7.210;2023-07-08T14:46:53;54.70;4.60
11423;DHT22;5768;51.476;7.210;2023-07-08T14:51:55;56.80;4.80
11423;DHT22;5768;51.476;7.210;2023-07-08T14:56:59;55.70;5.00
11423;DHT22;5768;51.476;7.210;2023-07-08T15:02:18;57.70;4.80
11423;DHT22;5768;51.476;7.210;2023-07-08T15:07:22;59.10;2.40
11423;DHT22;5768;51.476;7.210;2023-07-08T15:12:26;58.60;2.40
11423;DHT22;5768;51.476;7.210;2023-07-08T15:17:28;56.70;2.50
11423;DHT22;5768;51.476;7.210;2023-07-08T15:22:30;58.20;2.50
11423;DHT22;5768;51.476;7.210;2023-07-08T15:27:34;59.20;2.40
11423;DHT22;5768;51.476;7.210;2023-07-08T15:32:36;57.80;2.40
11423;DHT22;5768;51.476;7.210;2023-07-08T15:37:38;55.30;2.60
11423;DHT22;5768;51.476;7.210;2023-07-08T15:42:44;54.00;2.70
11423;DHT22;5768;51.476;7.210;2023-07-08T15:47:47;55.30;2.80
11423;DHT22;5768;51.476;7.210;2023-07-08T15:52:50;54.60;2.70
11423;DHT22;5768;51.476;7.210;2023-07-08T15:57:57;56.10;2.60
11423;DHT22;5768;51.476;7.210;2023-07-08T16:03:05;56.30;2.60
11423;DHT22;5768;51.476;7.210;2023-07-08T16:08:09;53.50;2.70
11423;DHT22;5768;51.476;7.210;2023-07-08T16:13:13;54.30;2.80
11423;DHT22;5768;51.476;7.210;2023-07-08T16:18:15;52.10;3.10
11423;DHT22;5768;51.476;7.210;2023-07-08T16:23:18;49.80;3.20
11423;DHT22;5768;51.476;7.210;2023-07-08T16:28:27;48.10;3.30
11423;DHT22;5768;51.476;7.210;2023-07-08T16:33:30;47.20;3.40
11423;DHT22;5768;51.476;7.210;2023-07-08T16:38:33;47.60;3.60
11423;DHT22;5768;51.476;7.210;2023-07-08T16:43:36;47.20;3.50
11423;DHT22;5768;51.476;7.210;2023-07-08T16:48:39;49.10;3.50
11423;DHT22;5768;51.476;7.210;2023-07-08T16:53:44;51.70;3.10
11423;DHT22;5768;51.476;7.210;2023-07-08T16:58:48;53.60;2.80
11423;DHT22;5768;51.476;7.210;2023-07-08T17:03:51;53.60;2.80
11423;DHT22;5768;51.476;7.210;2023-07-08T17:08:54;53.00;2.90
11423;DHT22;5768;51.476;7.210;2023-07-08T17:13:58;51.80;3.00
11423;DHT22;5768;51.476;7.210;2023-07-08T17:19:01;50.70;3.00
11423;DHT22;5768;51.476;7.210;2023-07-08T17:24:04;51.30;3.10
11423;DHT22;5768;51.476;7.210;2023-07-08T17:29:09;52.70;2.90
11423;DHT22;5768;51.476;7.210;2023-07-08T17:34:19;51.10;3.20
11423;DHT22;5768;51.476;7.210;2023-07-08T17:39:22;51.10;3.30
11423;DHT22;5768;51.476;7.210;2023-07-08T17:44:26;52.60;3.20
11423;DHT22;5768;51.476;7.210;2023-07-08T17:49:28;49.30;3.40
11423;DHT22;5768;51.476;7.210;2023-07-08T17:54:31;46.00;3.90
11423;DHT22;5768;51.476;7.210;2023-07-08T17:59:35;44.70;4.00
11423;DHT22;5768;51.476;7.210;2023-07-08T18:04:37;43.70;4.20
11423;DHT22;5768;51.476;7.210;2023-07-08T18:09:39;43.10;4.40
11423;DHT22;5768;51.476;7.210;2023-07-08T18:14:44;46.80;4.10
11423;DHT22;5768;51.476;7.210;2023-07-08T18:19:48;47.80;3.90
11423;DHT22;5768;51.476;7.210;2023-07-08T18:24:50;47.60;3.80
11423;DHT22;5768;51.476;7.210;2023-07-08T18:29:53;45.70;4.00
11423;DHT22;5768;51.476;7.210;2023-07-08T18:34:56;44.60;4.20
11423;DHT22;5768;51.476;7.210;2023-07-08T18:39:58;44.10;4.50
11423;DHT22;5768;51.476;7.210;2023-07-08T18:45:02;45.00;4.30
11423;DHT22;5768;51.476;7.210;2023-07-08T18:50:07;43.80;4.40
11423;DHT22;5768;51.476;7.210;2023-07-08T18:55:13;43.90;4.50
11423;DHT22;5768;51.476;7.210;2023-07-08T19:00:19;43.20;4.70
11423;DHT22;5768;51.476;7.210;2023-07-08T19:05:22;42.10;4.90
11423;DHT22;5768;51.476;7.210;2023-07-08T19:10:29;41.50;4.90
11423;DHT22;5768;51.476;7.210;2023-07-08T19:15:35;40.30;5.10
11423;DHT22;5768;51.476;7.210;2023-07-08T19:20:38;38.50;5.40
11423;DHT22;5768;51.476;7.210;2023-07-08T19:25:42;37.20;5.80
11423;DHT22;5768;51.476;7.210;2023-07-08T19:30:50;36.10;6.00
11423;DHT22;5768;51.476;7.210;2023-07-08T19:35:55;35.30;6.20
11423;DHT22;5768;51.476;7.210;2023-07-08T19:41:00;34.80;6.40
11423;DHT22;5768;51.476;7.210;2023-07-08T19:46:04;34.20;6.50
11423;DHT22;5768;51.476;7.210;2023-07-08T19:51:08;33.40;6.90
11423;DHT22;5768;51.476;7.210;2023-07-08T19:56:11;32.90;7.00
11423;DHT22;5768;51.476;7.210;2023-07-08T20:01:17;32.40;7.10
11423;DHT22;5768;51.476;7.210;2023-07-08T20:06:23;32.20;7.20
11423;DHT22;5768;51.476;7.210;2023-07-08T20:11:27;32.00;7.20
11423;DHT22;5768;51.476;7.210;2023-07-08T20:16:31;31.70;7.30
11423;DHT22;5768;51.476;7.210;2023-07-08T20:21:34;31.40;7.30
11423;DHT22;5768;51.476;7.210;2023-07-08T20:26:37;31.10;7.40
11423;DHT22;5768;51.476;7.210;2023-07-08T20:31:44;30.90;7.50
11423;DHT22;5768;51.476;7.210;2023-07-08T20:36:47;30.60;7.50
11423;DHT22;5768;51.476;7.210;2023-07-08T20:41:49;30.40;7.50
11423;DHT22;5768;51.476;7.210;2023-07-08T20:46:53;30.20;7.60
11423;DHT22;5768;51.476;7.210;2023-07-08T20:51:56;30.00;7.60
11423;DHT22;5768;51.476;7.210;2023-07-08T20:56:58;29.90;7.50
11423;DHT22;5768;51.476;7.210;2023-07-08T21:02:11;29.70;7.60
11423;DHT22;5768;51.476;7.210;2023-07-08T21:07:23;29.40;7.70
11423;DHT22;5768;51.476;7.210;2023-07-08T21:12:25;29.20;7.70
11423;DHT22;5768;51.476;7.210;2023-07-08T21:17:30;29.10;7.70
11423;DHT22;5768;51.476;7.210;2023-07-08T21:22:36;29.00;7.80
11423;DHT22;5768;51.476;7.210;2023-07-08T21:27:39;28.80;7.70
11423;DHT22;5768;51.476;7.210;2023-07-08T21:32:45;28.70;7.70
11423;DHT22;5768;51.476;7.210;2023-07-08T21:37:50;28.50;7.80
11423;DHT22;5768;51.476;7.210;2023-07-08T21:42:53;28.30;7.80
11423;DHT22;5768;51.476;7.210;2023-07-08T21:47:57;28.20;7.80
11423;DHT22;5768;51.476;7.210;2023-07-08T21:53:01;28.10;7.80
11423;DHT22;5768;51.476;7.210;2023-07-08T21:58:03;28.00;7.90
11423;DHT22;5768;51.476;7.210;2023-07-08T22:03:11;27.90;8.00
11423;DHT22;5768;51.476;7.210;2023-07-08T22:08:15;27.90;8.00
11423;DHT22;5768;51.476;7.210;2023-07-08T22:13:24;27.80;8.10
11423;DHT22;5768;51.476;7.210;2023-07-08T22:18:29;27.70;8.10
11423;DHT22;5768;51.476;7.210;2023-07-08T22:23:31;27.60;8.20
11423;DHT22;5768;51.476;7.210;2023-07-08T22:28:34;27.50;8.20
11423;DHT22;5768;51.476;7.210;2023-07-08T22:33:38;27.40;8.20
11423;DHT22;5768;51.476;7.210;2023-07-08T22:38:40;27.40;8.20
11423;DHT22;5768;51.476;7.210;2023-07-08T22:43:42;27.30;8.20
11423;DHT22;5768;51.476;7.210;2023-07-08T22:48:45;27.20;8.20
11423;DHT22;5768;51.476;7.210;2023-07-08T22:53:47;27.20;8.30
11423;DHT22;5768;51.476;7.210;2023-07-08T22:58:50;27.10;8.30
11423;DHT22;5768;51.476;7.210;2023-07-08T23:03:53;27.00;8.30
11423;DHT22;5768;51.476;7.210;2023-07-08T23:08:55;26.90;8.30
11423;DHT22;5768;51.476;7.210;2023-07-08T23:13:58;26.90;8.30
11423;DHT22;5768;51.476;7.210;2023-07-08T23:19:01;26.90;8.30
11423;DHT22;5768;51.476;7.210;2023-07-08T23:24:04;26.70;8.40
11423;DHT22;5768;51.476;7.210;2023-07-08T23:29:16;26.70;8.30
11423;DHT22;5768;51.476;7.210;2023-07-08T23:34:21;26.70;8.40
11423;DHT22;5768;51.476;7.210;2023-07-08T23:39:24;26.60;8.40
11423;DHT22;5768;51.476;7.210;2023-07-08T23:44:27;26.50;8.40
11423;DHT22;5768;51.476;7.210;2023-07-08T23:49:32;26.50;8.50
11423;DHT22;5768;51.476;7.210;2023-07-08T23:54:38;26.40;8.50
11423;DHT22;5768;51.476;7.210;2023-07-08T23:59:44;26.30;8.60
